Time;durP1;ratioP1;P1;durP2;ratioP2;P2;SDS_P1;SDS_P2;PMS_P1;PMS_P2;Temp;Humidity;BMP_temperature;BMP_pressure;BME280_temperature;BME280_humidity;BME280_pressure;Samples;Min_cycle;Max_cycle;Signal;HPM_P1;HPM_P2
2021/01/24 00:02:10;;;;;;;19.63;13.60;;;;;;;3.36;100.00;97937.56;4960065;29;20199;-31
2021/01/24 00:04:59;;;;;;;23.93;15.57;;;;;;;3.42;100.00;97938.28;4961358;29;20208;-31
2021/01/24 00:07:45;;;;;;;23.73;14.70;;;;;;;3.35;100.00;97938.44;4960442;29;20207;-31
2021/01/24 00:10:32;;;;;;;20.50;14.70;;;;;;;3.26;100.00;97944.53;4960978;29;20232;-30
2021/01/24 00:13:18;;;;;;;22.23;15.03;;;;;;;3.29;100.00;97938.53;4960639;29;20200;-30
2021/01/24 00:16:05;;;;;;;22.30;15.07;;;;;;;3.30;100.00;97940.22;4960008;29;20200;-31
2021/01/24 00:18:52;;;;;;;21.13;14.27;;;;;;;3.29;100.00;97936.81;4961456;29;20204;-31
2021/01/24 00:21:41;;;;;;;26.07;15.57;;;;;;;3.29;100.00;97935.97;4961057;29;20196;-31
2021/01/24 00:24:28;;;;;;;17.43;13.10;;;;;;;3.30;100.00;97935.94;4960665;29;20294;-31
2021/01/24 00:27:13;;;;;;;22.43;13.50;;;;;;;3.25;100.00;97931.78;4959550;29;20211;-31
2021/01/24 00:30:01;;;;;;;21.47;13.70;;;;;;;3.31;100.00;97931.69;4960189;29;20208;-31
2021/01/24 00:32:48;;;;;;;22.97;15.60;;;;;;;3.25;100.00;97936.88;4960841;29;20196;-31
2021/01/24 00:35:34;;;;;;;20.27;14.40;;;;;;;3.17;100.00;97933.63;4959732;29;20503;-30
2021/01/24 00:38:21;;;;;;;18.97;13.30;;;;;;;3.24;100.00;97930.94;4963914;28;20770;-31
2021/01/24 00:41:08;;;;;;;17.80;13.17;;;;;;;3.19;100.00;97942.13;4963824;29;20685;-31
2021/01/24 00:43:54;;;;;;;16.50;12.00;;;;;;;3.20;100.00;97943.81;4963596;29;20227;-31
2021/01/24 00:46:40;;;;;;;18.87;13.10;;;;;;;3.31;100.00;97936.78;4963822;29;20232;-30
2021/01/24 00:49:27;;;;;;;19.13;12.87;;;;;;;3.19;100.00;97931.91;4963642;29;20200;-31
2021/01/24 00:52:17;;;;;;;20.10;13.33;;;;;;;3.28;100.00;97926.63;4964241;29;20211;-31
2021/01/24 00:55:08;;;;;;;16.23;12.23;;;;;;;3.25;100.00;97934.34;4963414;29;20299;-31
2021/01/24 00:57:55;;;;;;;19.47;13.20;;;;;;;3.29;100.00;97930.84;4964708;29;20642;-31
2021/01/24 01:00:41;;;;;;;17.13;10.87;;;;;;;3.24;100.00;97925.81;4962967;29;20603;-31
2021/01/24 01:03:27;;;;;;;16.80;12.03;;;;;;;3.23;100.00;97929.25;4962902;29;20231;-31
2021/01/24 01:06:14;;;;;;;15.13;11.50;;;;;;;3.25;100.00;97924.97;4962684;29;20211;-30
2021/01/24 01:09:00;;;;;;;22.10;13.20;;;;;;;3.27;100.00;97924.94;4964326;29;20322;-30
2021/01/24 01:11:47;;;;;;;15.67;11.93;;;;;;;3.27;100.00;97922.38;4962603;29;20203;-31
2021/01/24 01:14:34;;;;;;;14.57;11.23;;;;;;;3.31;100.00;97926.56;4963954;29;20211;-30
2021/01/24 01:17:20;;;;;;;15.83;11.27;;;;;;;3.24;100.00;97927.53;4962493;29;20204;-29
2021/01/24 01:20:09;;;;;;;16.23;11.13;;;;;;;3.31;100.00;97921.47;4962941;29;20203;-29
2021/01/24 01:22:56;;;;;;;17.77;12.17;;;;;;;3.31;100.00;97922.31;4963125;29;20220;-30
2021/01/24 01:25:42;;;;;;;15.87;11.27;;;;;;;3.32;100.00;97921.44;4962952;29;20293;-29
2021/01/24 01:28:29;;;;;;;16.80;11.10;;;;;;;3.30;100.00;97923.16;4962694;29;20203;-29
2021/01/24 01:31:16;;;;;;;16.07;10.87;;;;;;;3.31;100.00;97924.84;4962980;29;20214;-29
2021/01/24 01:34:01;;;;;;;16.70;10.13;;;;;;;3.29;100.00;97918.09;4962741;29;20199;-29
2021/01/24 01:36:49;;;;;;;14.87;10.90;;;;;;;3.35;100.00;97918.84;4963098;29;20200;-29
2021/01/24 01:39:35;;;;;;;14.53;10.67;;;;;;;3.29;100.00;97918.94;4961787;29;20219;-29
2021/01/24 01:42:24;;;;;;;14.90;11.03;;;;;;;3.30;100.00;97915.50;4962307;29;20736;-29
2021/01/24 01:45:11;;;;;;;14.90;10.87;;;;;;;3.32;100.00;97921.44;4962427;29;20283;-29
2021/01/24 01:47:58;;;;;;;13.10;10.63;;;;;;;3.25;100.00;97922.41;4961964;28;20348;-29
2021/01/24 01:50:45;;;;;;;15.50;11.40;;;;;;;3.24;100.00;97922.44;4961662;29;20650;-29
2021/01/24 01:53:31;;;;;;;16.03;12.50;;;;;;;3.29;100.00;97924.03;4962207;29;20294;-29
2021/01/24 01:56:18;;;;;;;15.93;11.33;;;;;;;3.26;100.00;97923.25;4962320;29;20207;-29
2021/01/24 01:59:06;;;;;;;15.73;11.33;;;;;;;3.21;100.00;97923.31;4962196;29;20286;-30
2021/01/24 02:02:05;;;;;;;17.37;12.43;;;;;;;3.24;100.00;97920.72;4962292;29;20199;-29
2021/01/24 02:05:00;;;;;;;14.70;11.57;;;;;;;3.22;100.00;97921.59;4962464;29;20228;-29
2021/01/24 02:07:54;;;;;;;16.50;11.77;;;;;;;3.24;100.00;97917.31;4962764;29;20207;-29
2021/01/24 02:10:45;;;;;;;19.60;11.70;;;;;;;3.26;100.00;97918.13;4962724;29;20203;-29
2021/01/24 02:13:41;;;;;;;17.43;11.80;;;;;;;3.21;100.00;97913.09;4962142;29;20303;-29
2021/01/24 02:16:29;;;;;;;15.70;11.83;;;;;;;3.20;100.00;97921.63;4962213;29;20243;-29
2021/01/24 02:19:25;;;;;;;16.57;12.13;;;;;;;3.23;100.00;97920.75;4961701;29;20340;-29
2021/01/24 02:22:13;;;;;;;16.57;11.93;;;;;;;3.19;100.00;97919.13;4961566;29;20207;-29
2021/01/24 02:25:12;;;;;;;15.43;11.33;;;;;;;3.19;100.00;97921.69;4961937;29;20227;-29
2021/01/24 02:28:12;;;;;;;17.67;11.87;;;;;;;3.17;100.00;97924.28;4961720;29;20610;-29
2021/01/24 02:31:01;;;;;;;18.17;12.33;;;;;;;3.20;100.00;97918.28;4961848;29;20304;-29
2021/01/24 02:33:49;;;;;;;17.27;13.03;;;;;;;3.17;100.00;97928.53;4961973;29;20260;-29
2021/01/24 02:36:38;;;;;;;17.60;12.60;;;;;;;3.02;100.00;97919.41;4961460;29;20208;-29
2021/01/24 02:39:25;;;;;;;17.80;11.90;;;;;;;3.06;100.00;97926.16;4961792;29;20232;-29
2021/01/24 02:42:12;;;;;;;17.03;11.73;;;;;;;3.03;100.00;97921.94;4964271;29;20199;-29
2021/01/24 02:44:59;;;;;;;15.97;11.53;;;;;;;3.05;100.00;97932.97;4961661;29;20634;-30
2021/01/24 02:47:48;;;;;;;19.87;12.87;;;;;;;3.07;100.00;97922.72;4961107;29;20208;-30
2021/01/24 02:50:39;;;;;;;16.53;11.50;;;;;;;2.96;100.00;97929.72;4961274;29;20220;-29
2021/01/24 02:53:26;;;;;;;17.73;13.03;;;;;;;3.00;100.00;97929.63;4961179;29;20204;-30
2021/01/24 02:56:13;;;;;;;17.40;13.37;;;;;;;3.03;100.00;97927.03;4961408;29;20207;-30
2021/01/24 02:58:59;;;;;;;19.63;14.40;;;;;;;3.04;100.00;97931.28;4959796;29;20203;-30
2021/01/24 03:01:46;;;;;;;18.73;13.37;;;;;;;3.02;100.00;97933.00;4961576;29;20199;-30
2021/01/24 03:04:33;;;;;;;17.03;12.60;;;;;;;2.94;100.00;97932.31;4960983;29;20227;-29
2021/01/24 03:07:19;;;;;;;18.33;13.37;;;;;;;2.93;100.00;97925.53;4961195;29;20200;-30
2021/01/24 03:10:07;;;;;;;19.47;14.40;;;;;;;2.94;100.00;97934.88;4922490;29;20205;-29
2021/01/24 03:13:03;;;;;;;16.23;12.30;;;;;;;2.95;100.00;97938.25;4922546;29;20205;-29
2021/01/24 03:15:51;;;;;;;19.00;13.80;;;;;;;2.98;100.00;97943.31;4922525;29;20205;-30
2021/01/24 03:18:41;;;;;;;19.50;13.77;;;;;;;2.93;100.00;97935.72;4924382;29;20202;-29
2021/01/24 03:21:31;;;;;;;27.87;17.60;;;;;;;2.98;100.00;97939.06;4922848;29;20310;-29
2021/01/24 03:24:18;;;;;;;19.47;13.57;;;;;;;2.91;100.00;97940.00;4922705;29;20563;-30
2021/01/24 03:27:05;;;;;;;21.23;14.23;;;;;;;2.97;100.00;97939.09;4921893;29;20212;-30
2021/01/24 03:29:51;;;;;;;19.60;13.93;;;;;;;2.83;100.00;97931.63;4922659;29;20495;-30
2021/01/24 03:32:37;;;;;;;19.37;14.17;;;;;;;2.83;100.00;97944.38;4922072;29;20217;-30
2021/01/24 03:35:24;;;;;;;21.73;13.77;;;;;;;2.75;100.00;97939.41;4922475;29;20230;-29
2021/01/24 03:38:11;;;;;;;19.97;13.77;;;;;;;2.73;100.00;97938.59;4921944;29;20588;-30
2021/01/24 03:40:57;;;;;;;19.27;13.77;;;;;;;2.75;100.00;97941.13;4922704;29;20551;-30
2021/01/24 03:43:44;;;;;;;20.60;13.93;;;;;;;2.62;100.00;97937.91;4921844;29;20572;-30
2021/01/24 03:46:30;;;;;;;20.50;14.60;;;;;;;2.81;100.00;97935.91;4922533;29;20230;-29
2021/01/24 03:49:16;;;;;;;21.47;14.87;;;;;;;2.92;100.00;97939.16;4922154;29;20204;-30
2021/01/24 03:52:05;;;;;;;25.70;16.83;;;;;;;2.92;100.00;97936.59;4921817;29;20268;-30
2021/01/24 03:54:52;;;;;;;21.77;16.20;;;;;;;3.08;100.00;97944.84;4923729;29;20505;-30
2021/01/24 03:57:38;;;;;;;23.30;15.83;;;;;;;3.25;100.00;97937.72;4922600;29;20205;-30
2021/01/24 04:00:25;;;;;;;24.97;16.77;;;;;;;3.33;100.00;97945.28;4921612;29;20487;-30
2021/01/24 04:03:11;;;;;;;26.43;17.50;;;;;;;3.43;100.00;97944.22;4922141;29;20205;-30
2021/01/24 04:05:58;;;;;;;24.50;16.27;;;;;;;3.41;100.00;97948.50;4922677;29;20213;-30
2021/01/24 04:08:44;;;;;;;22.90;16.30;;;;;;;3.53;100.00;97945.75;4938815;29;20287;-30
2021/01/24 04:11:31;;;;;;;23.47;16.20;;;;;;;3.43;100.00;97947.63;4960407;28;20495;-30
2021/01/24 04:14:17;;;;;;;22.30;14.87;;;;;;;3.39;100.00;97955.41;4964631;29;20626;-31
2021/01/24 04:17:04;;;;;;;25.00;16.30;;;;;;;3.37;100.00;97950.31;4964194;29;20216;-30
2021/01/24 04:19:50;;;;;;;24.63;17.80;;;;;;;3.33;100.00;97951.22;4965654;29;20207;-30
2021/01/24 04:22:36;;;;;;;20.33;14.77;;;;;;;3.24;100.00;97948.81;4964171;29;20482;-30
2021/01/24 04:25:24;;;;;;;25.67;17.37;;;;;;;3.18;100.00;97950.66;4962864;29;20244;-30
2021/01/24 04:28:10;;;;;;;19.43;14.77;;;;;;;3.41;100.00;97953.63;4964167;29;20542;-30
2021/01/24 04:30:56;;;;;;;22.27;16.37;;;;;;;3.42;100.00;97953.59;4964326;29;20203;-30
2021/01/24 04:33:43;;;;;;;23.87;16.30;;;;;;;3.27;100.00;97960.69;4962622;29;20275;-30
2021/01/24 04:36:29;;;;;;;22.60;15.97;;;;;;;3.52;100.00;97961.97;4963177;29;20525;-30
2021/01/24 04:39:15;;;;;;;23.43;16.00;;;;;;;3.53;100.00;97960.25;4964761;29;20614;-30
2021/01/24 04:42:03;;;;;;;25.80;17.67;;;;;;;3.26;100.00;97961.56;4963016;29;20549;-30
2021/01/24 04:44:51;;;;;;;25.30;16.17;;;;;;;3.28;100.00;97962.38;4963497;29;20323;-30
2021/01/24 04:47:45;;;;;;;22.60;16.03;;;;;;;3.36;100.00;97963.94;4963107;29;20203;-30
2021/01/24 04:50:32;;;;;;;22.77;15.97;;;;;;;3.35;100.00;97966.53;4962909;29;20203;-30
2021/01/24 04:53:18;;;;;;;24.80;17.37;;;;;;;3.39;100.00;97965.63;4963753;29;20612;-31
2021/01/24 04:56:06;;;;;;;24.00;17.03;;;;;;;3.22;100.00;97972.69;4963044;29;20203;-30
2021/01/24 04:58:54;;;;;;;27.67;16.57;;;;;;;3.37;100.00;97967.34;4962110;29;20310;-30
2021/01/24 05:01:43;;;;;;;27.50;17.60;;;;;;;3.32;100.00;97969.13;4962796;29;20204;-30
2021/01/24 05:04:34;;;;;;;28.03;17.93;;;;;;;3.17;100.00;97975.34;4978635;28;20753;-30
2021/01/24 05:07:20;;;;;;;28.17;17.83;;;;;;;3.15;100.00;97974.53;4982168;28;20338;-30
2021/01/24 05:10:08;;;;;;;28.63;18.23;;;;;;;3.27;100.00;97973.47;4945340;29;20288;-30
2021/01/24 05:12:55;;;;;;;28.83;17.93;;;;;;;3.18;100.00;97982.16;4944577;29;20229;-30
2021/01/24 05:15:42;;;;;;;29.63;17.80;;;;;;;3.18;100.00;97981.31;4942617;29;20196;-30
2021/01/24 05:18:29;;;;;;;31.70;18.60;;;;;;;3.18;100.00;97988.97;4941979;29;20217;-30
2021/01/24 05:21:15;;;;;;;31.50;18.33;;;;;;;2.96;100.00;97984.19;4943926;29;20603;-30
2021/01/24 05:24:02;;;;;;;30.80;18.67;;;;;;;2.91;100.00;97993.63;4943271;28;20231;-30
2021/01/24 05:26:49;;;;;;;29.90;18.27;;;;;;;2.80;100.00;97987.81;4943498;29;20208;-30
2021/01/24 05:29:37;;;;;;;30.97;19.07;;;;;;;2.74;100.00;97990.50;4943302;29;20480;-30
2021/01/24 05:32:23;;;;;;;31.80;19.70;;;;;;;2.79;100.00;98000.63;4943095;29;20204;-30
2021/01/24 05:35:13;;;;;;;34.37;19.47;;;;;;;2.75;100.00;97997.28;4943427;29;20209;-32
2021/01/24 05:37:59;;;;;;;32.60;19.93;;;;;;;2.52;100.00;98001.84;4944733;29;20483;-30
2021/01/24 05:40:45;;;;;;;31.97;18.77;;;;;;;2.39;100.00;98008.84;4943043;29;20268;-30
2021/01/24 05:43:36;;;;;;;34.30;20.63;;;;;;;2.34;100.00;98018.25;4943648;29;20449;-30
2021/01/24 05:46:33;;;;;;;28.53;17.53;;;;;;;2.48;100.00;98008.69;4943446;29;20208;-30
2021/01/24 05:49:24;;;;;;;31.97;19.43;;;;;;;2.46;100.00;98015.53;4943129;29;20452;-30
2021/01/24 05:52:19;;;;;;;34.50;19.93;;;;;;;2.48;100.00;98015.50;4944282;29;20204;-30
2021/01/24 05:55:08;;;;;;;41.13;21.70;;;;;;;2.44;100.00;98035.09;4943738;29;20440;-30
2021/01/24 05:57:55;;;;;;;38.50;20.87;;;;;;;2.48;100.00;98028.28;4943162;29;20200;-30
2021/01/24 06:00:44;;;;;;;35.10;20.93;;;;;;;2.49;100.00;98029.97;4943995;29;20708;-30
2021/01/24 06:03:31;;;;;;;38.17;21.40;;;;;;;2.53;100.00;98040.09;4943841;29;20304;-30
2021/01/24 06:06:17;;;;;;;42.77;23.47;;;;;;;2.43;100.00;98038.53;4943123;29;20205;-30
2021/01/24 06:09:05;;;;;;;42.87;24.17;;;;;;;2.35;100.00;98048.84;4965147;28;20239;-29
2021/01/24 06:11:51;;;;;;;51.87;26.23;;;;;;;2.33;100.00;98057.38;4981406;28;20196;-30
2021/01/24 06:14:40;;;;;;;48.77;25.40;;;;;;;2.35;100.00;98061.59;4981931;28;20199;-30
2021/01/24 06:17:34;;;;;;;50.47;26.33;;;;;;;2.29;100.00;98064.22;4982287;28;20877;-31
2021/01/24 06:20:22;;;;;;;52.77;27.00;;;;;;;2.35;100.00;98066.69;4981226;28;20502;-30
2021/01/24 06:23:13;;;;;;;48.83;24.93;;;;;;;2.23;100.00;98074.47;4980827;28;20207;-30
2021/01/24 06:26:05;;;;;;;56.87;29.93;;;;;;;2.13;100.00;98074.59;4980180;28;20519;-30
2021/01/24 06:28:59;;;;;;;64.20;31.57;;;;;;;2.07;100.00;98084.00;4980154;28;20447;-30
2021/01/24 06:31:47;;;;;;;59.87;28.90;;;;;;;2.10;100.00;98090.78;4981062;28;20204;-30
2021/01/24 06:34:34;;;;;;;53.93;27.93;;;;;;;2.15;100.00;98090.72;4981938;28;20450;-30
2021/01/24 06:37:28;;;;;;;59.63;29.70;;;;;;;1.94;100.00;98096.88;4981365;28;21229;-30
2021/01/24 06:40:22;;;;;;;68.47;32.77;;;;;;;1.91;100.00;98102.00;4980786;28;20458;-30
2021/01/24 06:43:10;;;;;;;65.63;31.73;;;;;;;1.72;100.00;98099.63;4980497;28;20443;-31
2021/01/24 06:45:57;;;;;;;68.53;32.57;;;;;;;1.60;100.00;98106.56;4980348;28;20566;-30
2021/01/24 06:48:45;;;;;;;63.33;30.30;;;;;;;1.76;100.00;98114.91;4980888;28;20595;-30
2021/01/24 06:51:37;;;;;;;60.07;32.33;;;;;;;1.83;100.00;98116.53;4982173;28;20542;-30
2021/01/24 06:54:32;;;;;;;68.33;31.37;;;;;;;1.82;100.00;98119.91;4981521;28;20450;-30
2021/01/24 06:57:18;;;;;;;73.13;34.87;;;;;;;1.69;100.00;98124.28;4979946;28;20452;-30
2021/01/24 07:00:25;;;;;;;71.70;35.20;;;;;;;1.63;100.00;98137.06;4979503;28;20347;-29
2021/01/24 07:03:21;;;;;;;75.20;34.67;;;;;;;1.71;100.00;98145.50;4979862;28;20442;-29
2021/01/24 07:06:33;;;;;;;88.40;35.77;;;;;;;1.81;100.00;98147.13;4979620;28;20450;-30
2021/01/24 07:09:42;;;;;;;96.57;38.53;;;;;;;1.50;100.00;98160.97;4980500;28;20474;-29
2021/01/24 07:12:50;;;;;;;86.53;36.03;;;;;;;1.47;100.00;98160.97;4980354;28;20451;-29
2021/01/24 07:15:37;;;;;;;78.27;35.27;;;;;;;1.43;100.00;98167.78;4980200;28;20487;-29
2021/01/24 07:18:24;;;;;;;66.43;33.20;;;;;;;1.55;100.00;98167.72;4979566;28;20626;-30
2021/01/24 07:21:11;;;;;;;88.27;38.47;;;;;;;1.52;100.00;98171.97;4980184;28;20450;-30
2021/01/24 07:23:58;;;;;;;101.80;41.53;;;;;;;1.47;100.00;98178.81;4980175;28;20474;-30
2021/01/24 07:26:45;;;;;;;80.73;36.80;;;;;;;1.48;100.00;98186.44;4980841;28;20451;-29
2021/01/24 07:29:32;;;;;;;90.63;38.93;;;;;;;1.31;100.00;98190.78;4980865;28;20474;-29
2021/01/24 07:32:20;;;;;;;95.77;41.33;;;;;;;1.46;100.00;98200.88;4979950;28;20446;-29
2021/01/24 07:35:07;;;;;;;93.33;40.30;;;;;;;1.63;100.00;98203.31;4979695;28;20546;-29
2021/01/24 07:37:55;;;;;;;90.50;39.90;;;;;;;1.45;100.00;98208.53;4980316;28;20720;-29
2021/01/24 07:40:43;;;;;;;78.90;36.40;;;;;;;1.65;100.00;98211.78;4980771;28;20446;-30
2021/01/24 07:43:31;;;;;;;74.20;34.07;;;;;;;1.61;100.00;98230.50;4982405;28;20446;-30
2021/01/24 07:46:18;;;;;;;65.30;33.73;;;;;;;1.55;100.00;98228.84;4979489;28;20575;-30
2021/01/24 07:49:05;;;;;;;74.40;36.17;;;;;;;1.53;100.00;98233.13;4979137;28;20441;-30
2021/01/24 07:51:52;;;;;;;76.20;36.43;;;;;;;1.49;100.00;98239.06;4979223;28;20450;-30
2021/01/24 07:54:39;;;;;;;67.70;34.03;;;;;;;1.55;100.00;98249.25;4979209;28;20889;-30
2021/01/24 07:57:26;;;;;;;77.83;36.63;;;;;;;1.69;100.00;98251.69;4980148;28;20454;-30
2021/01/24 08:00:13;;;;;;;77.80;37.20;;;;;;;1.60;100.00;98260.22;4968988;28;20541;-29
2021/01/24 08:03:03;;;;;;;95.53;41.67;;;;;;;1.59;100.00;98267.91;4960090;29;20439;-29
2021/01/24 08:05:51;;;;;;;83.80;40.37;;;;;;;1.63;100.00;98264.47;4960755;29;20483;-28
2021/01/24 08:08:39;;;;;;;95.93;43.50;;;;;;;1.59;100.00;98265.34;4960802;29;20535;-28
2021/01/24 08:11:25;;;;;;;84.33;41.47;;;;;;;1.48;100.00;98273.03;4963522;29;20451;-27
2021/01/24 08:14:12;;;;;;;86.70;41.20;;;;;;;1.58;100.00;98282.34;4961842;29;20945;-28
2021/01/24 08:16:59;;;;;;;97.00;45.47;;;;;;;1.63;100.00;98289.94;4960433;29;20460;-29
2021/01/24 08:19:51;;;;;;;112.50;48.43;;;;;;;1.41;100.00;98289.19;4960110;29;20592;-29
2021/01/24 08:22:38;;;;;;;96.53;45.70;;;;;;;1.79;100.00;98295.81;4960317;29;20595;-28
2021/01/24 08:25:26;;;;;;;107.93;49.40;;;;;;;1.68;100.00;98301.81;4973605;28;20486;-29
2021/01/24 08:28:12;;;;;;;100.63;48.03;;;;;;;1.87;100.00;98304.25;4981210;28;20446;-28
2021/01/24 08:31:00;;;;;;;110.00;47.17;;;;;;;1.84;100.00;98311.91;4979808;28;20446;-28
2021/01/24 08:33:48;;;;;;;110.30;48.57;;;;;;;1.84;100.00;98322.09;4978967;28;20439;-29
2021/01/24 08:36:37;;;;;;;115.23;50.57;;;;;;;1.80;100.00;98318.72;4979938;28;20598;-29
2021/01/24 08:39:27;;;;;;;110.83;50.40;;;;;;;1.83;100.00;98323.81;4980460;28;20263;-28
2021/01/24 08:42:13;;;;;;;106.10;47.80;;;;;;;1.73;100.00;98333.22;4980879;28;20467;-29
2021/01/24 08:45:03;;;;;;;112.10;47.50;;;;;;;1.99;100.00;98332.22;4979658;28;20626;-29
2021/01/24 08:47:51;;;;;;;112.77;49.37;;;;;;;1.83;100.00;98333.16;4979224;28;20291;-29
2021/01/24 08:50:39;;;;;;;114.87;46.40;;;;;;;2.16;100.00;98337.22;4979539;28;20204;-29
2021/01/24 08:53:27;;;;;;;96.00;41.77;;;;;;;2.38;100.00;98341.31;4979080;28;20198;-29
2021/01/24 08:56:21;;;;;;;92.13;39.93;;;;;;;2.29;100.00;98347.31;4979882;28;20458;-29
2021/01/24 08:59:24;;;;;;;94.80;42.73;;;;;;;2.25;100.00;98353.28;4982773;28;20446;-29
2021/01/24 09:02:10;;;;;;;80.67;40.77;;;;;;;2.66;100.00;98352.13;4982239;28;20470;-29
2021/01/24 09:05:01;;;;;;;86.07;38.73;;;;;;;2.62;100.00;98356.41;4982906;28;20267;-28
2021/01/24 09:07:51;;;;;;;92.87;39.23;;;;;;;2.34;100.00;98360.06;4982088;28;20207;-28
2021/01/24 09:10:37;;;;;;;82.90;38.13;;;;;;;2.23;100.00;98364.34;4981312;28;20214;-28
2021/01/24 09:13:25;;;;;;;77.83;35.53;;;;;;;2.28;100.00;98366.03;4982634;28;20215;-28
2021/01/24 09:16:11;;;;;;;78.70;37.93;;;;;;;2.71;100.00;98370.81;4980869;28;20374;-27
2021/01/24 09:18:57;;;;;;;70.60;36.87;;;;;;;2.83;100.00;98378.38;4981389;28;20211;-27
2021/01/24 09:21:43;;;;;;;80.60;35.73;;;;;;;2.74;100.00;98378.47;4980746;28;20207;-27
2021/01/24 09:24:29;;;;;;;77.10;36.93;;;;;;;2.57;100.00;98380.31;4980945;28;20328;-27
2021/01/24 09:27:16;;;;;;;73.37;37.20;;;;;;;2.75;100.00;98387.81;4981878;28;20203;-27
2021/01/24 09:30:13;;;;;;;89.07;43.30;;;;;;;2.62;100.00;98392.16;4980542;28;20215;-27
2021/01/24 09:32:59;;;;;;;74.57;36.37;;;;;;;2.66;100.00;98390.41;4980478;28;20467;-27
2021/01/24 09:35:47;;;;;;;69.53;33.70;;;;;;;2.46;100.00;98399.94;4980999;28;20215;-27
2021/01/24 09:38:35;;;;;;;67.57;33.67;;;;;;;2.42;100.00;98399.94;4980493;28;20223;-27
2021/01/24 09:41:23;;;;;;;70.47;34.80;;;;;;;2.70;100.00;98404.84;4979914;28;20227;-27
2021/01/24 09:44:09;;;;;;;67.67;31.30;;;;;;;2.65;100.00;98409.16;4982303;28;20203;-27
2021/01/24 09:46:57;;;;;;;63.70;29.63;;;;;;;2.49;100.00;98412.66;4981262;28;20298;-27
2021/01/24 09:49:44;;;;;;;56.70;28.47;;;;;;;2.63;100.00;98415.97;4980403;28;20199;-27
2021/01/24 09:52:32;;;;;;;58.80;30.03;;;;;;;2.66;100.00;98410.84;4980297;28;20203;-27
2021/01/24 09:55:20;;;;;;;63.43;33.77;;;;;;;2.65;100.00;98425.31;4979773;28;20203;-27
2021/01/24 09:58:07;;;;;;;68.53;32.27;;;;;;;2.46;100.00;98421.19;4982066;28;20200;-26
2021/01/24 10:00:53;;;;;;;97.23;44.83;;;;;;;2.51;100.00;98427.13;4979727;28;20202;-28
2021/01/24 10:03:41;;;;;;;68.50;36.17;;;;;;;2.64;100.00;98427.88;4980154;28;20207;-28
2021/01/24 10:06:27;;;;;;;75.83;37.67;;;;;;;2.65;100.00;98430.41;4978593;28;20371;-28
2021/01/24 10:09:14;;;;;;;71.43;37.30;;;;;;;2.82;100.00;98437.09;4979232;28;20366;-28
2021/01/24 10:12:05;;;;;;;71.20;36.27;;;;;;;3.03;100.00;98435.22;4979546;28;20208;-29
2021/01/24 10:14:53;;;;;;;77.37;40.07;;;;;;;2.93;100.00;98442.97;4983722;28;20199;-29
2021/01/24 10:17:39;;;;;;;80.97;39.47;;;;;;;2.84;100.00;98443.03;4979334;28;20198;-29
2021/01/24 10:20:29;;;;;;;84.57;38.83;;;;;;;2.82;100.00;98444.75;4979364;28;20201;-29
2021/01/24 10:23:17;;;;;;;80.60;38.60;;;;;;;2.77;100.00;98447.38;4973775;28;20203;-29
2021/01/24 10:26:03;;;;;;;85.43;39.30;;;;;;;3.05;100.00;98446.28;4972610;28;20233;-29
2021/01/24 10:28:53;;;;;;;84.37;40.03;;;;;;;2.89;100.00;98451.50;4979052;28;20342;-29
2021/01/24 10:31:39;;;;;;;79.40;39.47;;;;;;;2.66;100.00;98455.06;4979384;28;20263;-29
2021/01/24 10:34:26;;;;;;;90.47;42.87;;;;;;;2.93;100.00;98465.97;4980050;28;20199;-29
2021/01/24 10:37:14;;;;;;;85.73;39.13;;;;;;;2.81;100.00;98466.88;4978595;28;20198;-28
2021/01/24 10:40:00;;;;;;;88.43;43.40;;;;;;;2.54;100.00;98473.03;4978592;28;20350;-29
2021/01/24 10:42:46;;;;;;;84.87;40.37;;;;;;;2.50;100.00;98488.34;4978415;28;20310;-29
2021/01/24 10:45:33;;;;;;;84.83;41.47;;;;;;;2.63;100.00;98482.31;4977565;28;20223;-29
2021/01/24 10:48:24;;;;;;;78.60;38.50;;;;;;;2.80;100.00;98490.72;4977935;28;20743;-31
2021/01/24 10:51:18;;;;;;;83.30;38.07;;;;;;;2.81;100.00;98499.22;4979236;28;20621;-31
2021/01/24 10:54:10;;;;;;;80.70;42.53;;;;;;;2.69;100.00;98489.94;4979032;28;20294;-29
2021/01/24 10:56:56;;;;;;;75.30;39.57;;;;;;;2.54;100.00;98492.59;4978725;28;20202;-29
2021/01/24 10:59:44;;;;;;;65.40;35.33;;;;;;;2.60;100.00;98498.50;4977146;28;20234;-29
2021/01/24 11:02:30;;;;;;;71.03;36.80;;;;;;;2.79;100.00;98509.47;4979248;28;20471;-30
2021/01/24 11:05:17;;;;;;;72.87;34.77;;;;;;;2.86;100.00;98507.69;4979071;28;20231;-29
2021/01/24 11:08:04;;;;;;;75.03;41.90;;;;;;;2.80;100.00;98508.59;4978315;28;20514;-30
2021/01/24 11:10:55;;;;;;;60.80;34.93;;;;;;;2.76;100.00;98517.13;4979054;28;20356;-30
2021/01/24 11:13:41;;;;;;;67.87;35.20;;;;;;;2.77;100.00;98508.63;4978571;28;20199;-30
2021/01/24 11:16:27;;;;;;;80.17;41.90;;;;;;;3.03;100.00;98516.94;4979030;28;20198;-30
2021/01/24 11:19:13;;;;;;;64.40;34.27;;;;;;;3.25;100.00;98522.75;4978122;28;20500;-31
2021/01/24 11:22:01;;;;;;;57.37;32.73;;;;;;;3.04;100.00;98521.19;4978341;28;20219;-30
2021/01/24 11:24:52;;;;;;;59.67;35.47;;;;;;;3.04;100.00;98528.00;4978684;28;20235;-30
2021/01/24 11:27:39;;;;;;;58.83;33.23;;;;;;;2.71;100.00;98531.63;4979059;28;20598;-29
2021/01/24 11:30:25;;;;;;;62.33;31.50;;;;;;;2.71;100.00;98539.28;4978655;28;20208;-30
2021/01/24 11:33:12;;;;;;;46.87;28.13;;;;;;;2.60;100.00;98534.22;4958895;29;20200;-30
2021/01/24 11:35:58;;;;;;;52.47;29.47;;;;;;;3.01;100.00;98540.78;4960324;29;20263;-30
2021/01/24 11:38:45;;;;;;;48.57;27.70;;;;;;;2.79;100.00;98552.88;4959696;29;20599;-30
2021/01/24 11:41:43;;;;;;;51.77;28.47;;;;;;;2.78;100.00;98547.78;4958870;29;20200;-30
2021/01/24 11:44:30;;;;;;;52.13;30.13;;;;;;;2.89;100.00;98557.06;4958594;29;20598;-30
2021/01/24 11:47:16;;;;;;;57.17;29.60;;;;;;;2.88;100.00;98554.50;4959155;29;20484;-29
2021/01/24 11:50:03;;;;;;;50.00;29.70;;;;;;;2.63;100.00;98553.78;4959786;29;20200;-30
2021/01/24 11:52:49;;;;;;;45.17;24.17;;;;;;;2.79;100.00;98554.56;4961365;29;20204;-30
2021/01/24 11:55:40;;;;;;;45.03;22.97;;;;;;;2.82;100.00;98554.53;4960383;29;20383;-30
2021/01/24 11:58:26;;;;;;;41.13;23.40;;;;;;;2.97;100.00;98547.66;4958492;29;20302;-30
2021/01/24 12:01:16;;;;;;;36.90;22.67;;;;;;;2.98;100.00;98549.34;4959535;29;20550;-30
2021/01/24 12:04:05;;;;;;;36.93;19.87;;;;;;;2.93;100.00;98561.28;4975556;28;20199;-29
2021/01/24 12:06:52;;;;;;;37.53;21.10;;;;;;;3.16;100.00;98555.19;4978187;28;20398;-30
2021/01/24 12:09:39;;;;;;;27.87;18.73;;;;;;;3.11;100.00;98562.88;4979492;28;20367;-29
2021/01/24 12:12:27;;;;;;;30.87;17.47;;;;;;;3.08;100.00;98557.78;4982554;28;20237;-30
2021/01/24 12:15:14;;;;;;;27.53;17.57;;;;;;;3.29;100.00;98565.28;4979029;28;20207;-30
2021/01/24 12:18:03;;;;;;;24.83;15.83;;;;;;;3.51;100.00;98560.03;4978437;28;20243;-30
2021/01/24 12:20:49;;;;;;;22.03;15.47;;;;;;;3.31;100.00;98565.28;4978542;28;20207;-30
2021/01/24 12:23:37;;;;;;;21.03;13.83;;;;;;;3.31;100.00;98560.19;4978922;28;20534;-30
2021/01/24 12:26:29;;;;;;;19.30;12.17;;;;;;;3.22;100.00;98555.97;4960900;29;20239;-31
2021/01/24 12:29:18;;;;;;;16.80;11.57;;;;;;;3.35;100.00;98564.41;4959021;29;20678;-30
2021/01/24 12:32:04;;;;;;;17.47;12.10;;;;;;;3.48;100.00;98558.34;4959415;28;20310;-30
2021/01/24 12:34:56;;;;;;;14.07;10.87;;;;;;;3.26;100.00;98556.81;4965318;29;20200;-30
2021/01/24 12:37:43;;;;;;;16.57;10.57;;;;;;;3.54;100.00;98557.44;4964693;29;20198;-30
2021/01/24 12:40:29;;;;;;;16.73;11.27;;;;;;;3.72;100.00;98554.72;4969654;28;20203;-30
2021/01/24 12:43:15;;;;;;;21.50;14.00;;;;;;;4.16;100.00;98551.72;4981563;28;20232;-31
2021/01/24 12:46:01;;;;;;;18.73;10.87;;;;;;;4.22;100.00;98551.63;4983039;28;20226;-31
2021/01/24 12:48:55;;;;;;;16.10;10.20;;;;;;;4.38;100.00;98554.88;4981401;28;20360;-31
2021/01/24 12:51:45;;;;;;;17.17;12.10;;;;;;;4.35;100.00;98549.81;4982173;28;20614;-31
2021/01/24 12:54:31;;;;;;;15.63;10.23;;;;;;;4.12;100.00;98548.34;4981843;28;20208;-30